Port Huron, MI

7:21 AM EST on February 27, 2015 (GMT -0500)
Port Huron Township | Change Station
CLOSE
Current Station
Personal Weather Station
Location: Port Huron, MI
Elevation: 594 ft
Nearby Weather Stations

Elev 594 ft 43.00 °N, 82.48 °W | Updated 7 minutes ago

Clear
Clear
-13.2 °F
Feels Like -13 °F
N
0.0
Wind Variable Wind from WNW
Gusts 0.0 mph

Today
High -- | Low -- °F
--% Chance of Precip.
Yesterday
High -- | Low -- °F
Precip. -- in
7:09 AM 6:16 PM
Waxing Gibbous, 68% visible
Pressure 30.47 in
Visibility 10.0 miles
Clouds Clear
Windchill -13 °F
Dew Point -16 °F
Humidity 85%
Rainfall 0.00 in
Snow Depth Not available.
UV 0 out of 12
Pollen .40 out of 12
Air Quality Not available.
Flu Activity Not available.
METAR KPHN 271219Z AUTO 00000KT 10SM CLR M28/M31 A3047 RMK AO2

More Conditions Fewer Conditions

Pressure 30.47 in
Visibility 10.0 miles
Clouds Clear
Windchill -13 °F
Dew Point -16 °F
Humidity 85%
Rainfall 0.00 in
Snow Depth Not available.
UV 0 out of 12
Pollen .40 out of 12
Air Quality Not available.
Flu Activity Not available.
METAR KPHN 271219Z AUTO 00000KT 10SM CLR M28/M31 A3047 RMK AO2

More Conditions Fewer Conditions

10-Day Weather Forecast

Almanac

Astronomy

Feb. 27, 2015 Rise Set
Actual Time
Civil Twilight
Nautical Twilight
Astronomical Twilight
Moon
Length of Visible Light
Length of Day
Tomorrow will be .
, % of the Moon is Illuminated

Today's Extremes

State Highs State Lows

Community

WunderPhotos

Upload Photos

1,800,663 photos uploaded!

WunderBlogs® & News

Nearby

Air Quality

  Air Quality AQ Index Pollutant
Not available.

Snow Depth

Station Depth Elevation

Earthquake Activity

City Distance Mag. Time & Date
Minimum magnitude displayed is 2.5.

Coastal Water Temperatures

Place Temperature

Nearby Weather Stations